createdAt,value
2017-07-15T00:02:00.318Z,6.47
2017-07-15T00:04:29.458Z,5.97
2017-07-15T00:06:58.633Z,5.90
2017-07-15T00:09:27.790Z,6.05
2017-07-15T00:11:56.939Z,6.25
2017-07-15T00:14:26.075Z,6.60
2017-07-15T00:16:55.227Z,6.05
2017-07-15T00:19:24.376Z,5.60
2017-07-15T00:21:53.523Z,4.95
2017-07-15T00:24:22.661Z,6.70
2017-07-15T00:26:51.806Z,5.50
2017-07-15T00:29:20.960Z,4.80
2017-07-15T00:31:50.102Z,6.37
2017-07-15T00:34:19.243Z,5.30
2017-07-15T00:39:24.030Z,4.78
2017-07-15T00:41:53.203Z,5.50
2017-07-15T00:44:22.335Z,6.35
2017-07-15T00:46:51.484Z,5.00
2017-07-15T00:49:20.639Z,6.53
2017-07-15T00:51:49.774Z,6.28
2017-07-15T00:54:18.926Z,4.70
2017-07-15T00:56:48.072Z,5.35
2017-07-15T00:59:17.209Z,5.90
2017-07-15T01:01:46.364Z,8.68
2017-07-15T01:04:15.495Z,5.45
2017-07-15T01:06:44.650Z,5.10
2017-07-15T01:09:13.793Z,5.80
2017-07-15T01:11:42.944Z,5.87
2017-07-15T01:14:12.086Z,7.05
2017-07-15T01:16:41.233Z,7.55
2017-07-15T01:19:10.376Z,5.35
2017-07-15T01:21:39.541Z,8.18
2017-07-15T01:24:08.686Z,6.70
2017-07-15T01:26:37.841Z,6.53
2017-07-15T01:29:06.979Z,6.95
2017-07-15T01:31:36.136Z,6.80
2017-07-15T01:34:05.268Z,9.68
2017-07-15T01:36:34.444Z,7.87
2017-07-15T01:39:03.580Z,7.28
2017-07-15T01:41:32.719Z,7.72
2017-07-15T01:44:01.874Z,8.20
2017-07-15T01:46:31.039Z,8.27
2017-07-15T01:49:00.193Z,8.20
2017-07-15T01:51:29.367Z,6.78
2017-07-15T01:53:58.499Z,13.18
2017-07-15T01:56:27.653Z,8.40
2017-07-15T01:58:56.783Z,7.53
2017-07-15T02:01:25.938Z,7.15
2017-07-15T02:03:55.078Z,7.10
2017-07-15T02:06:24.255Z,7.97
2017-07-15T02:08:53.393Z,8.45
2017-07-15T02:11:22.552Z,8.52
2017-07-15T02:13:51.704Z,5.70
2017-07-15T02:16:20.835Z,7.40
2017-07-15T02:18:49.994Z,8.68
2017-07-15T02:21:19.142Z,7.10
2017-07-15T02:23:48.291Z,10.43
2017-07-15T02:26:17.435Z,7.72
2017-07-15T02:28:46.583Z,6.65
2017-07-15T02:31:15.732Z,5.35
2017-07-15T02:33:44.866Z,5.90
2017-07-15T02:36:14.039Z,6.68
2017-07-15T02:38:43.179Z,7.53
2017-07-15T02:41:12.325Z,7.65
2017-07-15T02:43:41.484Z,5.50
2017-07-15T02:46:10.626Z,7.22
2017-07-15T02:48:39.786Z,14.52
2017-07-15T02:51:08.929Z,6.12
2017-07-15T02:53:38.078Z,6.53
2017-07-15T02:56:07.215Z,5.53
2017-07-15T02:58:36.357Z,5.70
2017-07-15T03:01:05.513Z,6.45
2017-07-15T03:03:34.665Z,5.10
2017-07-15T03:06:03.829Z,9.05
2017-07-15T03:08:32.960Z,8.13
2017-07-15T03:11:02.106Z,6.65
2017-07-15T03:13:31.243Z,4.82
2017-07-15T03:16:00.391Z,5.72
2017-07-15T03:18:29.539Z,4.60
2017-07-15T03:20:58.705Z,7.22
2017-07-15T03:23:27.870Z,4.80
2017-07-15T03:25:57.016Z,4.70
2017-07-15T03:28:26.162Z,5.68
2017-07-15T03:30:55.307Z,7.30
2017-07-15T03:33:24.447Z,5.75
2017-07-15T03:35:53.631Z,5.30
2017-07-15T03:38:22.774Z,7.12
2017-07-15T03:40:51.928Z,5.90
2017-07-15T03:43:21.064Z,9.30
2017-07-15T03:45:50.208Z,6.30
2017-07-15T03:48:19.349Z,5.25
2017-07-15T03:50:48.498Z,6.82
2017-07-15T03:53:17.643Z,7.47
2017-07-15T03:55:46.796Z,5.20
2017-07-15T03:58:15.949Z,7.18
2017-07-15T04:00:45.083Z,3.75
2017-07-15T04:03:14.240Z,7.53
2017-07-15T04:05:43.390Z,4.85
2017-07-15T04:08:12.515Z,6.07
2017-07-15T04:10:41.682Z,4.25
2017-07-15T04:13:10.821Z,6.30
2017-07-15T04:15:39.976Z,14.40
2017-07-15T04:18:09.138Z,3.85
2017-07-15T04:20:38.376Z,6.75
2017-07-15T04:23:07.497Z,4.03
2017-07-15T04:25:36.653Z,3.78
2017-07-15T04:28:05.815Z,6.20
2017-07-15T04:30:34.943Z,3.37
2017-07-15T04:33:04.107Z,4.90
2017-07-15T04:35:33.255Z,3.37
2017-07-15T04:38:02.383Z,7.18
2017-07-15T04:40:31.528Z,4.15
2017-07-15T04:43:00.667Z,8.45
2017-07-15T04:45:29.818Z,4.70
2017-07-15T04:47:58.962Z,4.43
2017-07-15T04:50:28.156Z,5.18
2017-07-15T04:52:57.300Z,4.40
2017-07-15T04:55:26.447Z,4.35
2017-07-15T04:57:55.604Z,3.60
2017-07-15T05:00:24.745Z,4.00
2017-07-15T05:02:53.905Z,6.12
2017-07-15T05:05:23.069Z,3.83
2017-07-15T05:07:52.206Z,4.00
2017-07-15T05:10:21.358Z,4.05
2017-07-15T05:12:50.514Z,3.30
2017-07-15T05:15:19.645Z,5.20
2017-07-15T05:17:48.805Z,3.58
2017-07-15T05:20:17.950Z,6.05
2017-07-15T05:22:47.093Z,9.35
2017-07-15T05:25:16.256Z,3.55
2017-07-15T05:27:45.424Z,7.30
2017-07-15T05:30:14.561Z,4.03
2017-07-15T05:32:43.706Z,5.05
2017-07-15T05:35:12.877Z,4.10
2017-07-15T05:37:42.014Z,5.28
2017-07-15T05:40:11.162Z,4.70
2017-07-15T05:42:40.314Z,3.45
2017-07-15T05:45:09.479Z,4.80
2017-07-15T05:47:38.629Z,3.25
2017-07-15T05:50:07.784Z,4.50
2017-07-15T05:52:36.934Z,2.55
2017-07-15T05:55:06.086Z,4.10
2017-07-15T05:57:35.216Z,2.75
2017-07-15T06:00:04.388Z,5.85
2017-07-15T06:02:33.547Z,6.20
2017-07-15T06:05:02.755Z,5.10
2017-07-15T06:07:31.893Z,1.83
2017-07-15T06:10:01.084Z,2.60
2017-07-15T06:12:30.216Z,2.00
2017-07-15T06:14:59.373Z,3.28
2017-07-15T06:17:28.507Z,3.40
2017-07-15T06:19:57.643Z,6.93
2017-07-15T06:22:26.795Z,3.72
2017-07-15T06:24:55.944Z,1.67
2017-07-15T06:27:25.091Z,3.35
2017-07-15T06:29:54.231Z,8.32
2017-07-15T06:32:23.383Z,4.40
2017-07-15T06:34:52.543Z,3.05
2017-07-15T06:37:21.683Z,2.25
2017-07-15T06:39:50.815Z,1.48
2017-07-15T06:42:19.971Z,3.12
2017-07-15T06:44:49.115Z,4.50
2017-07-15T06:47:18.312Z,2.45
2017-07-15T06:49:47.441Z,2.17
2017-07-15T06:52:16.579Z,2.58
2017-07-15T06:54:45.735Z,3.65
2017-07-15T06:57:14.874Z,2.78
2017-07-15T06:59:44.031Z,2.20
2017-07-15T07:02:13.167Z,3.30
2017-07-15T07:04:42.317Z,2.33
2017-07-15T07:07:11.460Z,8.18
2017-07-15T07:09:40.618Z,4.72
2017-07-15T07:12:09.788Z,3.72
2017-07-15T07:14:38.925Z,3.92
2017-07-15T07:17:08.083Z,1.83
2017-07-15T07:19:37.228Z,5.20
2017-07-15T07:22:06.379Z,1.65
2017-07-15T07:24:35.539Z,3.03
2017-07-15T07:27:04.677Z,4.07
2017-07-15T07:29:33.828Z,7.97
2017-07-15T07:32:02.983Z,7.28
2017-07-15T07:34:32.126Z,3.45
2017-07-15T07:37:01.270Z,1.85
2017-07-15T07:39:30.425Z,1.50
2017-07-15T07:41:59.599Z,4.75
2017-07-15T07:44:28.743Z,4.20
2017-07-15T07:46:57.904Z,2.35
2017-07-15T07:49:27.056Z,2.10
2017-07-15T07:51:56.203Z,2.65
2017-07-15T07:54:25.359Z,2.90
2017-07-15T07:56:54.511Z,2.65
2017-07-15T07:59:23.659Z,2.95
2017-07-15T08:01:52.815Z,2.10
2017-07-15T08:04:21.977Z,5.80
2017-07-15T08:06:51.134Z,5.85
2017-07-15T08:09:20.286Z,4.32
2017-07-15T08:11:49.450Z,4.05
2017-07-15T08:14:18.610Z,2.50
2017-07-15T08:16:47.747Z,4.72
2017-07-15T08:19:16.903Z,5.45
2017-07-15T08:21:46.091Z,2.45
2017-07-15T08:24:15.242Z,5.10
2017-07-15T08:26:44.384Z,2.40
2017-07-15T08:29:13.558Z,3.85
2017-07-15T08:31:42.699Z,3.30
2017-07-15T08:34:11.873Z,7.43
2017-07-15T08:36:41.028Z,2.40
2017-07-15T08:39:10.159Z,2.33
2017-07-15T08:41:39.317Z,1.93
2017-07-15T08:44:08.471Z,2.20
2017-07-15T08:46:37.607Z,2.17
2017-07-15T08:49:06.772Z,2.33
2017-07-15T08:51:35.927Z,2.23
2017-07-15T08:54:05.059Z,3.83
2017-07-15T08:56:34.222Z,3.73
2017-07-15T08:59:03.362Z,2.17
2017-07-15T09:01:32.505Z,3.20
2017-07-15T09:04:01.652Z,2.70
2017-07-15T09:06:30.817Z,3.17
2017-07-15T09:08:59.975Z,2.30
2017-07-15T09:11:29.102Z,2.60
2017-07-15T09:13:58.250Z,2.03
2017-07-15T09:16:27.419Z,3.03
2017-07-15T09:18:56.550Z,2.10
2017-07-15T09:21:25.732Z,2.23
2017-07-15T09:23:54.875Z,1.63
2017-07-15T09:26:24.034Z,2.40
2017-07-15T09:28:53.175Z,3.70
2017-07-15T09:31:22.315Z,2.70
2017-07-15T09:33:51.477Z,1.30
2017-07-15T09:36:20.628Z,1.80
2017-07-15T09:38:49.773Z,1.73
2017-07-15T09:41:18.935Z,2.60
2017-07-15T09:43:48.075Z,2.40
2017-07-15T09:46:17.219Z,1.47
2017-07-15T09:48:46.378Z,1.77
2017-07-15T09:51:15.530Z,1.47
2017-07-15T09:53:44.680Z,2.30
2017-07-15T09:56:13.844Z,2.30
2017-07-15T09:58:42.976Z,2.60
2017-07-15T10:01:12.168Z,1.30
2017-07-15T10:03:41.316Z,3.93
2017-07-15T10:06:10.473Z,1.70
2017-07-15T10:08:39.624Z,1.30
2017-07-15T10:11:08.755Z,1.50
2017-07-15T10:13:37.918Z,3.30
2017-07-15T10:16:07.048Z,1.77
2017-07-15T10:18:36.206Z,2.30
2017-07-15T10:21:05.380Z,1.40
2017-07-15T10:23:34.556Z,1.33
2017-07-15T10:26:03.691Z,2.83
2017-07-15T10:28:32.849Z,1.40
2017-07-15T10:31:02.007Z,4.00
2017-07-15T10:33:31.152Z,2.93
2017-07-15T10:36:00.340Z,6.10
2017-07-15T10:38:29.491Z,3.80
2017-07-15T10:40:58.627Z,3.43
2017-07-15T10:43:27.778Z,2.30
2017-07-15T10:45:56.931Z,1.10
2017-07-15T10:48:26.076Z,1.20
2017-07-15T10:50:55.228Z,1.63
2017-07-15T10:53:24.391Z,1.60
2017-07-15T10:55:53.519Z,4.90
2017-07-15T10:58:22.663Z,1.10
2017-07-15T11:00:51.807Z,1.33
2017-07-15T11:03:20.960Z,1.10
2017-07-15T11:05:50.127Z,2.30
2017-07-15T11:08:19.288Z,1.13
2017-07-15T11:10:48.441Z,2.27
2017-07-15T11:13:17.592Z,2.43
2017-07-15T11:15:46.735Z,2.00
2017-07-15T11:18:15.888Z,1.67
2017-07-15T11:20:45.050Z,1.30
2017-07-15T11:23:14.251Z,2.40
2017-07-15T11:25:43.398Z,2.20
2017-07-15T11:28:12.556Z,1.37
2017-07-15T11:30:41.684Z,2.23
2017-07-15T11:33:10.845Z,1.20
2017-07-15T11:35:39.997Z,1.67
2017-07-15T11:38:09.167Z,2.03
2017-07-15T11:40:38.323Z,1.50
2017-07-15T11:43:07.459Z,2.03
2017-07-15T11:45:36.627Z,1.47
2017-07-15T11:48:05.781Z,1.83
2017-07-15T11:50:34.927Z,3.20
2017-07-15T11:53:04.085Z,2.70
2017-07-15T11:55:33.222Z,3.53
2017-07-15T11:58:02.372Z,3.27
2017-07-15T12:00:31.528Z,2.90
2017-07-15T12:03:00.670Z,1.23
2017-07-15T12:05:29.814Z,2.63
2017-07-15T12:07:59.029Z,3.80
2017-07-15T12:10:28.168Z,1.20
2017-07-15T12:12:57.296Z,1.20
2017-07-15T12:15:26.447Z,1.77
2017-07-15T12:17:55.613Z,1.83
2017-07-15T12:20:24.767Z,1.90
2017-07-15T12:22:53.935Z,1.63
2017-07-15T12:25:23.070Z,1.67
2017-07-15T12:27:52.244Z,2.40
2017-07-15T12:30:21.387Z,2.67
2017-07-15T12:32:50.529Z,1.10
2017-07-15T12:35:19.782Z,1.80
2017-07-15T12:37:48.913Z,2.40
2017-07-15T12:40:18.078Z,3.13
2017-07-15T12:42:47.208Z,1.30
2017-07-15T12:45:16.378Z,2.20
2017-07-15T12:47:45.524Z,2.03
2017-07-15T12:50:14.683Z,1.67
2017-07-15T12:52:43.862Z,1.40
2017-07-15T12:55:13.014Z,1.40
2017-07-15T12:57:42.160Z,2.67
2017-07-15T13:00:11.312Z,2.20
2017-07-15T13:02:40.450Z,2.10
2017-07-15T13:05:09.613Z,2.70
2017-07-15T13:07:38.747Z,3.23
2017-07-15T13:10:07.888Z,1.37
2017-07-15T13:12:37.059Z,4.30
2017-07-15T13:15:06.211Z,1.60
2017-07-15T13:17:35.373Z,7.97
2017-07-15T13:20:04.533Z,1.47
2017-07-15T13:22:33.696Z,1.70
2017-07-15T13:25:02.842Z,1.77
2017-07-15T13:27:33.099Z,1.77
2017-07-15T13:30:02.235Z,2.53
2017-07-15T13:32:31.383Z,2.20
2017-07-15T13:35:00.542Z,2.13
2017-07-15T13:37:29.689Z,3.43
2017-07-15T13:39:58.867Z,1.53
2017-07-15T13:42:28.021Z,2.17
2017-07-15T13:44:57.154Z,2.50
2017-07-15T13:47:26.296Z,1.87
2017-07-15T13:49:55.428Z,1.43
2017-07-15T13:52:24.599Z,1.40
2017-07-15T13:54:53.740Z,5.33
2017-07-15T13:57:22.867Z,1.87
2017-07-15T13:59:52.031Z,3.23
2017-07-15T14:02:21.183Z,2.90
2017-07-15T14:04:50.316Z,3.47
2017-07-15T14:07:19.480Z,4.43
2017-07-15T14:09:48.633Z,1.40
2017-07-15T14:12:17.773Z,1.70
2017-07-15T14:14:46.924Z,7.63
2017-07-15T14:17:16.093Z,1.17
2017-07-15T14:19:45.232Z,1.80
2017-07-15T14:22:14.371Z,2.97
2017-07-15T14:24:43.534Z,3.10
2017-07-15T14:27:12.697Z,1.43
2017-07-15T14:29:41.849Z,2.63
2017-07-15T14:32:10.971Z,2.87
2017-07-15T14:34:40.123Z,1.70
2017-07-15T14:37:09.278Z,1.27
2017-07-15T14:39:38.431Z,1.87
2017-07-15T14:42:07.588Z,1.37
2017-07-15T14:44:36.722Z,3.67
2017-07-15T14:47:05.880Z,2.30
2017-07-15T14:49:35.040Z,2.70
2017-07-15T14:52:04.192Z,1.20
2017-07-15T14:54:33.341Z,1.47
2017-07-15T14:57:02.492Z,1.13
2017-07-15T14:59:31.647Z,1.10
2017-07-15T15:02:00.786Z,2.60
2017-07-15T15:04:29.927Z,1.27
2017-07-15T15:06:59.102Z,2.27
2017-07-15T15:09:28.247Z,1.37
2017-07-15T15:11:57.402Z,1.43
2017-07-15T15:14:26.549Z,1.43
2017-07-15T15:16:55.698Z,1.87
2017-07-15T15:19:24.860Z,1.93
2017-07-15T15:21:54.004Z,1.63
2017-07-15T15:24:23.156Z,2.83
2017-07-15T15:26:52.300Z,1.80
2017-07-15T15:29:21.447Z,1.70
2017-07-15T15:31:50.609Z,3.23
2017-07-15T15:34:19.741Z,1.40
2017-07-15T15:36:48.885Z,4.43
2017-07-15T15:39:18.050Z,1.60
2017-07-15T15:41:47.189Z,2.20
2017-07-15T15:44:16.327Z,2.47
2017-07-15T15:46:45.469Z,1.70
2017-07-15T15:49:14.606Z,1.80
2017-07-15T15:51:43.773Z,2.27
2017-07-15T15:54:12.922Z,3.20
2017-07-15T15:56:42.068Z,1.60
2017-07-15T15:59:11.216Z,1.43
2017-07-15T16:01:40.368Z,1.50
2017-07-15T16:04:09.521Z,2.90
2017-07-15T16:06:38.687Z,2.30
2017-07-15T16:09:07.855Z,2.20
2017-07-15T16:11:37.014Z,4.10
2017-07-15T16:14:06.165Z,1.53
2017-07-15T16:16:35.302Z,1.40
2017-07-15T16:19:04.450Z,1.60
2017-07-15T16:21:33.592Z,1.70
2017-07-15T16:24:02.758Z,1.67
2017-07-15T16:26:31.911Z,5.30
2017-07-15T16:29:01.034Z,1.70
2017-07-15T16:31:30.186Z,1.80
2017-07-15T16:33:59.329Z,1.70
2017-07-15T16:36:28.485Z,2.30
2017-07-15T16:38:57.644Z,1.63
2017-07-15T16:41:26.790Z,1.93
2017-07-15T16:43:55.936Z,1.90
2017-07-15T16:46:25.080Z,2.37
2017-07-15T16:48:54.236Z,1.73
2017-07-15T16:51:23.400Z,1.80
2017-07-15T16:53:52.545Z,1.80
2017-07-15T16:56:21.728Z,1.77
2017-07-15T16:58:50.863Z,3.53
2017-07-15T17:01:20.026Z,1.60
2017-07-15T17:03:49.175Z,1.90
2017-07-15T17:06:18.339Z,3.63
2017-07-15T17:08:47.484Z,1.73
2017-07-15T17:11:16.629Z,2.10
2017-07-15T17:13:45.780Z,1.80
2017-07-15T17:16:14.918Z,2.53
2017-07-15T17:18:44.078Z,1.60
2017-07-15T17:21:13.227Z,2.10
2017-07-15T17:23:42.384Z,4.27
2017-07-15T17:26:11.527Z,2.00
2017-07-15T17:28:40.670Z,2.00
2017-07-15T17:31:09.820Z,2.70
2017-07-15T17:33:38.961Z,2.10
2017-07-15T17:36:08.120Z,2.30
2017-07-15T17:38:37.270Z,2.00
2017-07-15T17:41:06.416Z,3.37
2017-07-15T17:43:35.552Z,2.20
2017-07-15T17:46:04.691Z,2.03
2017-07-15T17:48:33.839Z,2.20
2017-07-15T17:51:03.014Z,2.43
2017-07-15T17:53:32.176Z,2.87
2017-07-15T17:56:01.312Z,2.77
2017-07-15T17:58:30.461Z,2.33
2017-07-15T18:00:59.620Z,2.10
2017-07-15T18:03:28.758Z,3.43
2017-07-15T18:05:57.914Z,16.17
2017-07-15T18:08:27.090Z,8.40
2017-07-15T18:10:56.227Z,4.83
2017-07-15T18:13:25.396Z,2.53
2017-07-15T18:15:54.519Z,3.50
2017-07-15T18:18:23.672Z,8.30
2017-07-15T18:20:52.823Z,4.40
2017-07-15T18:23:21.966Z,3.20
2017-07-15T18:25:51.112Z,3.10
2017-07-15T18:28:20.267Z,3.07
2017-07-15T18:30:49.411Z,3.20
2017-07-15T18:33:18.557Z,4.40
2017-07-15T18:35:47.714Z,3.13
2017-07-15T18:38:16.863Z,8.13
2017-07-15T18:40:46.034Z,3.33
2017-07-15T18:43:15.178Z,3.03
2017-07-15T18:45:45.360Z,2.93
2017-07-15T18:48:14.523Z,4.10
2017-07-15T18:50:43.665Z,5.23
2017-07-15T18:53:12.824Z,3.63
2017-07-15T18:55:41.975Z,3.30
2017-07-15T18:58:11.121Z,2.90
2017-07-15T19:00:40.282Z,2.47
2017-07-15T19:03:09.441Z,4.33
2017-07-15T19:05:38.603Z,3.28
2017-07-15T19:08:07.754Z,3.30
2017-07-15T19:10:36.930Z,2.77
2017-07-15T19:13:06.086Z,3.20
2017-07-15T19:15:35.224Z,3.10
2017-07-15T19:18:04.375Z,2.90
2017-07-15T19:20:33.535Z,3.17
2017-07-15T19:23:02.702Z,3.37
2017-07-15T19:25:31.862Z,3.40
2017-07-15T19:28:01.009Z,3.83
2017-07-15T19:30:30.168Z,3.33
2017-07-15T19:32:59.322Z,5.50
2017-07-15T19:35:28.491Z,6.35
2017-07-15T19:37:57.657Z,3.45
2017-07-15T19:40:26.805Z,2.90
2017-07-15T19:42:55.974Z,3.20
2017-07-15T19:45:25.124Z,3.30
2017-07-15T19:47:54.283Z,3.15
2017-07-15T19:50:23.434Z,3.55
2017-07-15T19:52:52.598Z,3.22
2017-07-15T19:55:21.752Z,3.50
2017-07-15T19:57:50.906Z,4.57
2017-07-15T20:00:20.071Z,3.30
2017-07-15T20:02:49.257Z,2.80
2017-07-15T20:05:18.424Z,2.90
2017-07-15T20:07:48.041Z,3.20
2017-07-15T20:10:17.206Z,3.58
2017-07-15T20:12:46.626Z,3.72
2017-07-15T20:15:15.819Z,3.70
2017-07-15T20:17:44.975Z,3.20
2017-07-15T20:20:14.155Z,3.35
2017-07-15T20:22:43.302Z,3.20
2017-07-15T20:25:12.475Z,6.70
2017-07-15T20:27:41.623Z,3.25
2017-07-15T20:30:10.789Z,3.83
2017-07-15T20:32:39.953Z,3.85
2017-07-15T20:35:09.112Z,3.90
2017-07-15T20:37:38.252Z,3.70
2017-07-15T20:40:07.423Z,3.42
2017-07-15T20:42:36.569Z,3.08
2017-07-15T20:45:05.743Z,3.60
2017-07-15T20:47:34.923Z,4.00
2017-07-15T20:50:04.084Z,4.28
2017-07-15T20:52:38.997Z,3.75
2017-07-15T20:55:08.142Z,3.97
2017-07-15T20:57:37.307Z,4.20
2017-07-15T21:00:06.460Z,4.20
2017-07-15T21:02:35.596Z,3.25
2017-07-15T21:05:04.809Z,4.05
2017-07-15T21:07:33.969Z,3.87
2017-07-15T21:10:03.153Z,6.78
2017-07-15T21:12:32.322Z,3.85
2017-07-15T21:15:01.471Z,3.95
2017-07-15T21:17:30.631Z,4.28
2017-07-15T21:19:59.788Z,3.65
2017-07-15T21:22:28.960Z,3.42
2017-07-15T21:24:58.119Z,3.72
2017-07-15T21:27:27.306Z,4.20
2017-07-15T21:29:56.445Z,3.03
2017-07-15T21:32:25.632Z,3.45
2017-07-15T21:34:54.784Z,4.28
2017-07-15T21:37:23.952Z,3.55
2017-07-15T21:39:53.115Z,4.82
2017-07-15T21:42:23.136Z,3.85
2017-07-15T21:44:52.320Z,4.00
2017-07-15T21:47:21.468Z,4.30
2017-07-15T21:49:50.628Z,4.40
2017-07-15T21:52:19.840Z,4.78
2017-07-15T21:54:48.984Z,4.30
2017-07-15T21:57:18.129Z,4.40
2017-07-15T21:59:47.271Z,4.18
2017-07-15T22:02:16.427Z,3.75
2017-07-15T22:04:45.567Z,5.35
2017-07-15T22:07:14.707Z,6.32
2017-07-15T22:09:43.856Z,4.82
2017-07-15T22:12:13.024Z,4.10
2017-07-15T22:14:44.262Z,4.30
2017-07-15T22:17:13.391Z,4.95
2017-07-15T22:19:42.547Z,4.25
2017-07-15T22:22:11.707Z,4.85
2017-07-15T22:24:40.885Z,4.47
2017-07-15T22:27:10.020Z,8.68
2017-07-15T22:29:39.362Z,4.30
2017-07-15T22:32:08.555Z,4.35
2017-07-15T22:34:37.698Z,4.95
2017-07-15T22:37:06.853Z,4.70
2017-07-15T22:39:35.995Z,4.70
2017-07-15T22:42:05.158Z,4.50
2017-07-15T22:44:34.299Z,4.55
2017-07-15T22:47:03.449Z,4.85
2017-07-15T22:49:32.607Z,5.40
2017-07-15T22:52:01.766Z,4.62
2017-07-15T22:54:30.911Z,4.57
2017-07-15T22:57:00.071Z,4.50
2017-07-15T22:59:29.226Z,4.20
2017-07-15T23:01:58.383Z,4.40
2017-07-15T23:04:27.524Z,5.22
2017-07-15T23:06:56.685Z,4.90
2017-07-15T23:09:25.824Z,5.18
2017-07-15T23:11:54.978Z,4.30
2017-07-15T23:14:24.127Z,5.65
2017-07-15T23:16:53.270Z,4.68
2017-07-15T23:19:22.414Z,4.95
2017-07-15T23:21:51.584Z,5.95
2017-07-15T23:24:20.735Z,4.70
2017-07-15T23:26:49.895Z,5.68
2017-07-15T23:29:19.032Z,4.57
2017-07-15T23:31:48.180Z,6.03
2017-07-15T23:34:17.343Z,5.05
2017-07-15T23:36:46.495Z,3.95
2017-07-15T23:39:15.628Z,3.75
2017-07-15T23:41:44.796Z,4.57
2017-07-15T23:44:13.947Z,3.10
2017-07-15T23:46:43.087Z,4.00
2017-07-15T23:49:12.241Z,4.00
2017-07-15T23:51:41.401Z,3.62
2017-07-15T23:54:10.553Z,4.95
2017-07-15T23:56:39.712Z,5.00
2017-07-15T23:59:08.848Z,5.47
